Station: Port Macquarie Airport  

  Atmospheric Gas Attenuation - ITU Rec 676-11   ----------------- dB/100km -----------------
Date Time Temp RH % AH g/m3 Dew Point Wind Direction Speed kph Gust kph Barometer mB Rainfall Since 9am 24GHz 47GHz 76GHz 122GHz 134GHz 241GHz
08/05 12:30 20.5 32 5.69 3.3 9 15 1016.5 0 13.2 20.1 26.6 69.3 57.3 194.9
08/05 12:20 20.2 32 5.59 3 6 9 1016.7 0 13.0 20.0 26.4 68.7 56.4 191.9
08/05 12:10 20 32 5.53 2.8 11 17 1016.8 0 12.9 20.0 26.3 68.4 55.9 190.0
08/05 12:00 20.1 33 5.74 3.3 11 15 1017 0 13.3 20.2 26.9 70.1 58.1 197.9
08/05 11:50 20 35 6.05 4.1 13 17 1017.1 0 13.9 20.7 28.0 73.0 61.6 210.1
08/05 11:40 19 32 5.21 2 13 15 1017.2 0 12.2 19.8 25.6 66.4 53.1 180.1
08/05 11:30 19.6 36 6.08 4.1 15 20 1017.4 0 14.0 20.8 28.3 73.6 62.2 212.4
08/05 11:20 18.8 33 5.31 2.2 13 15 1017.7 0 12.4 19.9 26.0 67.5 54.3 184.5
08/05 11:10 18.4 35 5.5 2.7 17 20 1017.9 0 12.8 20.3 26.7 69.5 56.7 192.8
08/05 11:00 18.2 36 5.6 2.9 15 20 1018 0 13.1 20.5 27.1 70.6 58.0 197.2
08/05 10:50 18.1 37 5.72 3.2 19 20 1018.2 0 13.3 20.7 27.6 71.8 59.4 202.2
08/05 10:40 17.4 36 5.33 2.2 17 17 1018.5 0 12.5 20.3 26.5 68.9 55.5 188.5
08/05 10:30 17.1 37 5.39 2.3 13 19 1018.6 0 12.7 20.4 26.8 69.7 56.4 191.6
08/05 10:20 16.7 38 5.4 2.3 13 15 1018.7 0 12.7 20.6 27.0 70.1 56.8 193.0
08/05 10:10 16.6 38 5.37 2.2 17 20 1018.9 0 12.6 20.5 26.9 69.9 56.6 192.0
08/05 10:00 15.9 38 5.15 1.6 17 24 1018.9 0 12.2 20.4 26.4 68.5 54.6 184.9
08/05 09:50 16.1 39 5.35 2.2 11 15 1019 0 12.6 20.6 27.0 70.2 56.7 192.4
08/05 09:40 15.4 40 5.26 1.9 19 22 1019.1 0 12.4 20.7 26.9 70.0 56.2 190.5
08/05 09:30 15 40 5.13 1.5 17 28 1019.1 0 12.2 20.6 26.6 69.1 55.0 186.2
08/05 09:20 14.6 41 5.13 1.5 19 22 1019.1 0 12.2 20.7 26.7 69.5 55.2 187.1
08/05 09:10 14.3 42 5.16 1.6 11 13 1019.2 0 12.3 20.8 26.9 70.0 55.8 189.0
08/05 09:00 14.1 41 4.98 1.1 15 22 1019.2 0 11.9 20.6 26.4 68.5 53.9 182.2
08/05 08:50 13.6 42 4.94 0.9 17 20 1019.3 0 11.8 20.6 26.4 68.6 53.7 181.7
08/05 08:40 13.8 45 5.36 2.1 11 15 1019.5 0 12.7 21.2 27.8 72.3 58.5 198.4
08/05 08:30 12.9 43 4.85 0.6 15 24 1019.6 0 11.7 20.7 26.3 68.3 53.2 179.7
08/05 08:20 12.6 43 4.76 0.4 13 17 1019.7 0 11.5 20.6 26.1 67.7 52.3 176.7
08/05 08:10 12.1 44 4.72 0.2 13 15 1019.6 0 11.4 20.6 26.1 67.8 52.2 176.1
08/05 08:00 11.9 46 4.87 0.7 13 20 1019.6 0 11.7 20.9 26.7 69.4 54.1 182.7
08/05 07:50 11.6 47 4.89 0.7 15 19 1019.6 0 11.8 21.0 26.9 69.8 54.5 184.2
08/05 07:40 11.2 45 4.56 -0.3 17 22 1019.6 0 11.1 20.6 25.8 67.0 50.9 171.4
08/05 07:30 10.8 48 4.75 0.2 13 20 1019.7 0 11.5 21.0 26.6 69.2 53.4 180.2
08/05 07:20 10.5 48 4.66 0 13 17 1019.6 0 11.3 20.9 26.4 68.6 52.5 177.1
08/05 07:10 10.1 50 4.73 0.2 11 13 1019.6 0 11.5 21.1 26.8 69.6 53.6 180.9
08/05 07:00 9.8 50 4.64 -0.1 13 15 1019.6 0 11.3 21.1 26.6 69.0 52.8 177.8
08/05 06:50 9.6 50 4.58 -0.3 13 13 1019.6 0 11.2 21.0 26.4 68.6 52.2 175.7
08/05 06:40 9.2 52 4.64 -0.1 13 15 1019.5 0 11.3 21.2 26.8 69.5 53.2 179.1
08/05 06:30 9.2 51 4.56 -0.4 13 19 1019.6 0 11.2 21.1 26.5 68.7 52.2 175.7
08/05 06:20 9.5 50 4.55 -0.4 15 17 1019.5 0 11.1 21.0 26.3 68.3 51.9 174.6
08/05 06:10 9.5 50 4.55 -0.4 15 19 1019.5 0 11.1 21.0 26.3 68.3 51.9 174.6
08/05 06:00 9.4 50 4.52 -0.5 15 20 1019.5 0 11.1 21.0 26.3 68.1 51.6 173.6
08/05 05:50 9.2 51 4.56 -0.4 15 17 1019.5 0 11.2 21.1 26.5 68.7 52.2 175.7
08/05 05:40 9.3 50 4.49 -0.6 15 17 1019.4 0 11.0 20.9 26.2 67.9 51.3 172.5
08/05 05:30 9.4 50 4.52 -0.5 13 19 1019.3 0 11.1 21.0 26.3 68.1 51.6 173.6
08/05 05:20 9.6 49 4.49 -0.6 13 17 1019.3 0 11.0 20.9 26.1 67.7 51.1 171.9
08/05 05:10 9.3 50 4.49 -0.6 11 13 1019.3 0 11.0 20.9 26.2 67.9 51.3 172.5
08/05 05:00 9.5 49 4.46 -0.7 11 17 1019.3 0 10.9 20.8 26.0 67.5 50.8 170.8
08/05 04:50 9.3 50 4.49 -0.6 11 13 1019.2 0 11.0 20.9 26.2 67.9 51.3 172.5
08/05 04:40 9.3 50 4.49 -0.6 13 15 1019.1 0 11.0 20.9 26.2 67.9 51.3 172.5
08/05 04:30 9.4 49 4.43 -0.8 13 19 1019 0 10.9 20.8 25.9 67.2 50.5 169.7
08/05 04:20 9.6 48 4.4 -0.9 15 20 1019 0 10.8 20.7 25.8 66.8 50.0 168.1
08/05 04:10 9.5 49 4.46 -0.7 17 19 1019 0 10.9 20.8 26.0 67.4 50.8 170.8
08/05 04:00 9.3 49 4.4 -0.8 15 19 1018.9 0 10.8 20.8 25.8 67.0 50.2 168.7
08/05 03:50 9.4 49 4.43 -0.8 15 17 1018.8 0 10.9 20.8 25.9 67.2 50.5 169.7
08/05 03:40 9 50 4.41 -0.9 13 15 1018.9 0 10.8 20.9 26.0 67.4 50.5 169.7
08/05 03:30 9 50 4.41 -0.9 13 17 1018.9 0 10.8 20.9 26.0 67.4 50.5 169.7
08/05 03:20 9.2 49 4.38 -0.9 11 15 1018.9 0 10.8 20.8 25.8 66.9 50.0 168.0
08/05 03:10 9.2 48 4.29 -1.2 13 15 1018.9 0 10.6 20.7 25.5 66.0 48.9 164.3
08/05 03:00 9.1 48 4.26 -1.3 9 13 1019 0 10.5 20.6 25.4 65.8 48.6 163.2
08/05 02:50 9.5 46 4.19 -1.5 11 11 1019 0 10.4 20.4 25.0 64.9 47.6 159.5
08/05 02:40 9.7 45 4.15 -1.6 11 15 1018.9 0 10.3 20.3 24.8 64.3 47.0 157.5
08/05 02:30 9.8 45 4.18 -1.6 13 17 1019 0 10.3 20.4 24.9 64.5 47.3 158.5
08/05 02:20 9.9 45 4.2 -1.5 15 17 1019 0 10.4 20.4 25.0 64.6 47.5 159.2
08/05 02:10 10.1 44 4.16 -1.6 11 13 1018.9 0 10.3 20.3 24.7 64.1 46.9 157.1
08/05 02:00 9.1 50 4.44 -0.8 11 19 1018.9 0 10.9 20.9 26.1 67.6 50.8 170.8
08/05 01:50 8.3 54 4.55 -0.4 11 13 1019 0 11.2 21.2 26.7 69.3 52.6 177.2
08/05 01:40 8.4 52 4.41 -0.9 9 11 1019.1 0 10.9 21.0 26.2 67.9 50.9 171.0
08/05 01:30 8.5 53 4.53 -0.5 9 11 1019.2 0 11.1 21.2 26.6 69.0 52.3 175.9
08/05 01:20 9.4 47 4.25 -1.3 11 11 1019.2 0 10.5 20.6 25.3 65.5 48.4 162.3
08/05 01:10 9.7 45 4.15 -1.6 11 13 1019.2 0 10.3 20.4 24.8 64.3 47.0 157.5
08/05 01:00 10.1 43 4.07 -1.9 11 15 1019.3 0 10.1 20.2 24.4 63.3 45.8 153.5
08/05 00:50 10.5 42 4.07 -1.9 9 13 1019.2 0 10.1 20.1 24.3 62.9 45.6 152.7
08/05 00:40 10.4 44 4.24 -1.3 15 17 1019.1 0 10.4 20.3 24.9 64.6 47.6 159.9
08/05 00:20 7.9 55 4.52 -0.6 6 7 1019.2 0 11.1 21.3 26.7 69.4 52.5 176.8
08/05 00:10 8.8 52 4.53 -0.5 2 6 1019.2 0 11.1 21.1 26.5 68.7 52.1 175.3
08/05 00:00 8.6 54 4.64 -0.2 6 7 1019.2 0 11.3 21.3 27.0 70.0 53.5 180.4
07/05 23:50 9.3 47 4.23 -1.4 7 9 1019.1 0 10.5 20.6 25.2 65.4 48.2 161.6
07/05 23:40 9.1 48 4.26 -1.3 11 13 1019.1 0 10.5 20.6 25.4 65.9 48.7 163.3
07/05 23:30 9.5 46 4.19 -1.5 9 13 1019.1 0 10.4 20.4 25.0 64.9 47.6 159.6
07/05 23:20 11 39 3.9 -2.4 11 11 1019.1 0 9.7 19.7 23.6 61.0 43.4 145.0
07/05 23:10 10.9 39 3.88 -2.5 11 15 1019.1 0 9.7 19.7 23.5 60.9 43.2 144.3
07/05 23:00 11.9 34 3.6 -3.4 9 15 1019.1 0 9.0 19.1 22.3 57.6 39.6 131.6
07/05 22:50 11 36 3.6 -3.5 6 7 1019 0 9.1 19.3 22.6 58.2 40.0 133.0
07/05 22:40 11.8 35 3.68 -3.1 15 17 1018.8 0 9.2 19.2 22.6 58.4 40.5 134.8
07/05 22:30 12 34 3.62 -3.4 15 20 1018.8 0 9.1 19.1 22.4 57.7 39.7 132.2
07/05 22:20 11.5 37 3.82 -2.7 15 19 1018.8 0 9.5 19.5 23.2 59.9 42.2 140.9
07/05 22:10 11.3 38 3.88 -2.5 11 15 1019 0 9.7 19.6 23.4 60.6 43.0 143.6
07/05 22:00 12.1 34 3.65 -3.3 11 13 1019 0 9.1 19.1 22.4 57.9 40.0 133.2
07/05 21:50 12.2 34 3.67 -3.2 11 13 1018.9 0 9.2 19.1 22.5 58.0 40.2 133.8
07/05 21:40 13.3 30 3.47 -3.9 17 17 1018.9 0 8.7 18.7 21.5 55.5 37.5 124.4
07/05 21:30 13.6 29 3.41 -4.1 15 22 1018.9 0 8.6 18.5 21.2 54.7 36.7 121.6
07/05 21:20 13.3 31 3.58 -3.4 17 20 1018.9 0 9.0 18.8 21.9 56.4 38.7 128.6
07/05 21:10 13.7 28 3.32 -4.5 13 15 1018.9 0 8.4 18.4 20.9 53.9 35.7 118.1
07/05 21:00 14.3 27 3.32 -4.4 19 28 1018.7 0 8.4 18.3 20.8 53.5 35.4 117.2
07/05 20:50 14 28 3.38 -4.2 19 24 1018.6 0 8.5 18.4 21.0 54.2 36.2 119.9
07/05 20:40 14 28 3.38 -4.2 17 19 1018.4 0 8.5 18.4 21.0 54.2 36.2 119.9
07/05 20:30 14.3 27 3.32 -4.4 17 30 1018.3 0 8.4 18.2 20.8 53.5 35.4 117.2
07/05 20:20 14 28 3.38 -4.2 13 15 1018.3 0 8.5 18.4 21.0 54.2 36.2 119.9
07/05 20:10 14 29 3.5 -3.7 13 17 1018.3 0 8.8 18.5 21.4 55.2 37.4 124.4
07/05 20:00 14.6 27 3.38 -4.2 15 24 1018.3 0 8.5 18.3 20.9 53.8 35.9 119.0
07/05 19:50 14.4 28 3.46 -3.9 13 15 1018.2 0 8.7 18.4 21.2 54.6 36.8 122.3

Last Refresh: 08-May-2026 12:10:19

Bureau of Meteorology